sensor_id;sensor_type;location;lat;lon;timestamp;pressure;altitude;pressure_sealevel;temperature
15453;BMP280;7827;53.594;9.938;2022-08-19T00:01:57;153624.59;;;21.03
15453;BMP280;7827;53.594;9.938;2022-08-19T00:04:32;153610.69;;;20.98
15453;BMP280;7827;53.594;9.938;2022-08-19T00:07:04;153609.41;;;20.98
15453;BMP280;7827;53.594;9.938;2022-08-19T00:09:33;153618.28;;;21.01
15453;BMP280;7827;53.594;9.938;2022-08-19T00:12:02;153613.19;;;20.99
15453;BMP280;7827;53.594;9.938;2022-08-19T00:14:31;153611.94;;;20.99
15453;BMP280;7827;53.594;9.938;2022-08-19T00:17:00;153598.06;;;20.93
15453;BMP280;7827;53.594;9.938;2022-08-19T00:19:31;153593.03;;;20.91
15453;BMP280;7827;53.594;9.938;2022-08-19T00:22:00;153611.94;;;20.99
15453;BMP280;7827;53.594;9.938;2022-08-19T00:24:29;153604.38;;;20.96
15453;BMP280;7827;53.594;9.938;2022-08-19T00:26:58;153609.41;;;20.98
15453;BMP280;7827;53.594;9.938;2022-08-19T00:29:48;153603.13;;;20.95
15453;BMP280;7827;53.594;9.938;2022-08-19T00:32:19;153575.34;;;20.84
15453;BMP280;7827;53.594;9.938;2022-08-19T00:34:51;153565.28;;;20.80
15453;BMP280;7827;53.594;9.938;2022-08-19T00:37:21;153572.84;;;20.83
15453;BMP280;7827;53.594;9.938;2022-08-19T00:39:50;153589.25;;;20.90
15453;BMP280;7827;53.594;9.938;2022-08-19T00:42:21;153598.06;;;20.93
15453;BMP280;7827;53.594;9.938;2022-08-19T00:44:49;153605.63;;;20.96
15453;BMP280;7827;53.594;9.938;2022-08-19T00:47:18;153603.13;;;20.95
15453;BMP280;7827;53.594;9.938;2022-08-19T00:49:52;153590.47;;;20.90
15453;BMP280;7827;53.594;9.938;2022-08-19T00:52:25;153570.31;;;20.82
15453;BMP280;7827;53.594;9.938;2022-08-19T00:54:57;153552.63;;;20.75
15453;BMP280;7827;53.594;9.938;2022-08-19T00:57:30;153545.06;;;20.72
15453;BMP280;7827;53.594;9.938;2022-08-19T01:00:01;153537.50;;;20.69
15453;BMP280;7827;53.594;9.938;2022-08-19T01:02:32;153533.72;;;20.68
15453;BMP280;7827;53.594;9.938;2022-08-19T01:05:08;153527.38;;;20.65
15453;BMP280;7827;53.594;9.938;2022-08-19T01:07:40;153547.59;;;20.73
15453;BMP280;7827;53.594;9.938;2022-08-19T01:10:14;153551.38;;;20.75
15453;BMP280;7827;53.594;9.938;2022-08-19T01:12:44;153566.53;;;20.81
15453;BMP280;7827;53.594;9.938;2022-08-19T01:15:29;153566.53;;;20.81
15453;BMP280;7827;53.594;9.938;2022-08-19T01:18:07;153570.31;;;20.82
15453;BMP280;7827;53.594;9.938;2022-08-19T01:20:40;153564.00;;;20.80
15453;BMP280;7827;53.594;9.938;2022-08-19T01:23:11;153555.16;;;20.76
15453;BMP280;7827;53.594;9.938;2022-08-19T01:25:45;153537.50;;;20.69
15453;BMP280;7827;53.594;9.938;2022-08-19T01:28:20;153507.19;;;20.57
15453;BMP280;7827;53.594;9.938;2022-08-19T01:31:08;153499.59;;;20.54
15453;BMP280;7827;53.594;9.938;2022-08-19T01:33:56;153512.19;;;20.59
15453;BMP280;7827;53.594;9.938;2022-08-19T01:36:29;153512.19;;;20.59
15453;BMP280;7827;53.594;9.938;2022-08-19T01:39:02;153500.84;;;20.55
15453;BMP280;7827;53.594;9.938;2022-08-19T01:41:31;153505.94;;;20.57
15453;BMP280;7827;53.594;9.938;2022-08-19T01:44:01;153497.06;;;20.53
15453;BMP280;7827;53.594;9.938;2022-08-19T01:46:46;153503.38;;;20.56
15453;BMP280;7827;53.594;9.938;2022-08-19T01:49:17;153495.81;;;20.53
15453;BMP280;7827;53.594;9.938;2022-08-19T01:51:47;153492.03;;;20.52
15453;BMP280;7827;53.594;9.938;2022-08-19T01:54:19;153487.00;;;20.50
15453;BMP280;7827;53.594;9.938;2022-08-19T01:56:59;153465.56;;;20.41
15453;BMP280;7827;53.594;9.938;2022-08-19T01:59:31;153466.78;;;20.42
15453;BMP280;7827;53.594;9.938;2022-08-19T02:02:00;153475.66;;;20.45
15453;BMP280;7827;53.594;9.938;2022-08-19T02:04:28;153474.38;;;20.45
15453;BMP280;7827;53.594;9.938;2022-08-19T02:06:58;153479.44;;;20.47
15453;BMP280;7827;53.594;9.938;2022-08-19T02:09:27;153478.16;;;20.46
15453;BMP280;7827;53.594;9.938;2022-08-19T02:11:56;153478.16;;;20.46
15453;BMP280;7827;53.594;9.938;2022-08-19T02:14:24;153474.38;;;20.45
15453;BMP280;7827;53.594;9.938;2022-08-19T02:16:52;153466.78;;;20.42
15453;BMP280;7827;53.594;9.938;2022-08-19T02:19:20;153465.56;;;20.41
15453;BMP280;7827;53.594;9.938;2022-08-19T02:21:49;153456.72;;;20.38
15453;BMP280;7827;53.594;9.938;2022-08-19T02:24:17;153454.19;;;20.37
15453;BMP280;7827;53.594;9.938;2022-08-19T02:26:48;153456.72;;;20.38
15453;BMP280;7827;53.594;9.938;2022-08-19T02:29:16;153468.09;;;20.42
15453;BMP280;7827;53.594;9.938;2022-08-19T02:31:45;153439.06;;;20.31
15453;BMP280;7827;53.594;9.938;2022-08-19T02:34:13;153436.53;;;20.30
15453;BMP280;7827;53.594;9.938;2022-08-19T02:36:41;153428.94;;;20.27
15453;BMP280;7827;53.594;9.938;2022-08-19T02:39:18;153417.59;;;20.22
15453;BMP280;7827;53.594;9.938;2022-08-19T02:41:45;153420.16;;;20.23
15453;BMP280;7827;53.594;9.938;2022-08-19T02:44:15;153413.81;;;20.21
15453;BMP280;7827;53.594;9.938;2022-08-19T02:46:57;153421.38;;;20.24
15453;BMP280;7827;53.594;9.938;2022-08-19T02:49:26;153436.53;;;20.30
15453;BMP280;7827;53.594;9.938;2022-08-19T02:51:54;153452.97;;;20.36
15453;BMP280;7827;53.594;9.938;2022-08-19T02:54:22;153456.72;;;20.38
15453;BMP280;7827;53.594;9.938;2022-08-19T02:56:50;153456.72;;;20.38
15453;BMP280;7827;53.594;9.938;2022-08-19T02:59:20;153459.22;;;20.39
15453;BMP280;7827;53.594;9.938;2022-08-19T03:01:49;153451.66;;;20.36
15453;BMP280;7827;53.594;9.938;2022-08-19T03:04:18;153454.19;;;20.37
15453;BMP280;7827;53.594;9.938;2022-08-19T03:06:47;153459.22;;;20.39
15453;BMP280;7827;53.594;9.938;2022-08-19T03:09:19;153475.66;;;20.45
15453;BMP280;7827;53.594;9.938;2022-08-19T03:11:47;153466.78;;;20.42
15453;BMP280;7827;53.594;9.938;2022-08-19T03:14:20;153445.38;;;20.33
15453;BMP280;7827;53.594;9.938;2022-08-19T03:16:52;153425.19;;;20.25
15453;BMP280;7827;53.594;9.938;2022-08-19T03:19:20;153423.94;;;20.25
15453;BMP280;7827;53.594;9.938;2022-08-19T03:21:50;153403.72;;;20.17
15453;BMP280;7827;53.594;9.938;2022-08-19T03:24:19;153412.59;;;20.20
15453;BMP280;7827;53.594;9.938;2022-08-19T03:26:50;153405.00;;;20.17
15453;BMP280;7827;53.594;9.938;2022-08-19T03:29:21;153388.59;;;20.11
15453;BMP280;7827;53.594;9.938;2022-08-19T03:31:58;153401.22;;;20.16
15453;BMP280;7827;53.594;9.938;2022-08-19T03:34:31;153405.00;;;20.17
15453;BMP280;7827;53.594;9.938;2022-08-19T03:37:06;153418.84;;;20.23
15453;BMP280;7827;53.594;9.938;2022-08-19T03:39:37;153411.28;;;20.20
15453;BMP280;7827;53.594;9.938;2022-08-19T03:42:06;153399.94;;;20.15
15453;BMP280;7827;53.594;9.938;2022-08-19T03:44:56;153387.34;;;20.10
15453;BMP280;7827;53.594;9.938;2022-08-19T03:47:25;153378.53;;;20.07
15453;BMP280;7827;53.594;9.938;2022-08-19T03:49:53;153384.81;;;20.09
15453;BMP280;7827;53.594;9.938;2022-08-19T03:52:22;153401.22;;;20.16
15453;BMP280;7827;53.594;9.938;2022-08-19T03:54:50;153464.31;;;20.41
15453;BMP280;7827;53.594;9.938;2022-08-19T03:57:19;153521.06;;;20.63
15453;BMP280;7827;53.594;9.938;2022-08-19T03:59:59;153527.38;;;20.65
15453;BMP280;7827;53.594;9.938;2022-08-19T04:02:39;153528.63;;;20.66
15453;BMP280;7827;53.594;9.938;2022-08-19T04:05:22;153550.16;;;20.74
15453;BMP280;7827;53.594;9.938;2022-08-19T04:07:54;153577.88;;;20.85
15453;BMP280;7827;53.594;9.938;2022-08-19T04:10:24;153584.22;;;20.88
15453;BMP280;7827;53.594;9.938;2022-08-19T04:12:52;153557.72;;;20.77
15453;BMP280;7827;53.594;9.938;2022-08-19T04:15:22;153564.00;;;20.80
15453;BMP280;7827;53.594;9.938;2022-08-19T04:17:50;153569.06;;;20.82
15453;BMP280;7827;53.594;9.938;2022-08-19T04:20:19;153562.75;;;20.79
15453;BMP280;7827;53.594;9.938;2022-08-19T04:22:47;153540.03;;;20.70
15453;BMP280;7827;53.594;9.938;2022-08-19T04:25:16;153561.50;;;20.79
15453;BMP280;7827;53.594;9.938;2022-08-19T04:27:44;153572.84;;;20.83
15453;BMP280;7827;53.594;9.938;2022-08-19T04:30:14;153571.56;;;20.83
15453;BMP280;7827;53.594;9.938;2022-08-19T04:32:44;153586.69;;;20.89
15453;BMP280;7827;53.594;9.938;2022-08-19T04:35:13;153605.63;;;20.96
15453;BMP280;7827;53.594;9.938;2022-08-19T04:37:43;153600.59;;;20.94
15453;BMP280;7827;53.594;9.938;2022-08-19T04:40:12;153577.88;;;20.85
15453;BMP280;7827;53.594;9.938;2022-08-19T04:42:57;153565.28;;;20.80
15453;BMP280;7827;53.594;9.938;2022-08-19T04:45:26;153541.28;;;20.71
15453;BMP280;7827;53.594;9.938;2022-08-19T04:48:06;153535.00;;;20.68
15453;BMP280;7827;53.594;9.938;2022-08-19T04:50:55;153575.34;;;20.84
15453;BMP280;7827;53.594;9.938;2022-08-19T04:53:25;153564.00;;;20.80
15453;BMP280;7827;53.594;9.938;2022-08-19T04:55:56;153564.00;;;20.80
15453;BMP280;7827;53.594;9.938;2022-08-19T04:58:27;153576.63;;;20.85
15453;BMP280;7827;53.594;9.938;2022-08-19T05:00:55;153572.84;;;20.83
15453;BMP280;7827;53.594;9.938;2022-08-19T05:03:29;153555.16;;;20.76
15453;BMP280;7827;53.594;9.938;2022-08-19T05:06:05;153556.41;;;20.77
15453;BMP280;7827;53.594;9.938;2022-08-19T05:08:35;153557.72;;;20.77
15453;BMP280;7827;53.594;9.938;2022-08-19T05:11:10;153533.72;;;20.68
15453;BMP280;7827;53.594;9.938;2022-08-19T05:13:41;153533.72;;;20.68
15453;BMP280;7827;53.594;9.938;2022-08-19T05:16:12;153557.72;;;20.77
15453;BMP280;7827;53.594;9.938;2022-08-19T05:18:42;153552.63;;;20.75
15453;BMP280;7827;53.594;9.938;2022-08-19T05:21:29;153560.19;;;20.78
15453;BMP280;7827;53.594;9.938;2022-08-19T05:24:17;153556.41;;;20.77
15453;BMP280;7827;53.594;9.938;2022-08-19T05:26:49;153545.06;;;20.72
15453;BMP280;7827;53.594;9.938;2022-08-19T05:29:20;153541.28;;;20.71
15453;BMP280;7827;53.594;9.938;2022-08-19T05:31:50;153533.72;;;20.68
15453;BMP280;7827;53.594;9.938;2022-08-19T05:34:22;153533.72;;;20.68
15453;BMP280;7827;53.594;9.938;2022-08-19T05:36:54;153512.19;;;20.59
15453;BMP280;7827;53.594;9.938;2022-08-19T05:39:27;153514.75;;;20.60
15453;BMP280;7827;53.594;9.938;2022-08-19T05:41:59;153498.34;;;20.54
15453;BMP280;7827;53.594;9.938;2022-08-19T05:44:31;153497.06;;;20.53
15453;BMP280;7827;53.594;9.938;2022-08-19T05:47:02;153500.84;;;20.55
15453;BMP280;7827;53.594;9.938;2022-08-19T05:49:33;153507.19;;;20.57
15453;BMP280;7827;53.594;9.938;2022-08-19T05:52:04;153504.63;;;20.56
15453;BMP280;7827;53.594;9.938;2022-08-19T05:54:33;153507.19;;;20.57
15453;BMP280;7827;53.594;9.938;2022-08-19T05:57:03;153513.50;;;20.60
15453;BMP280;7827;53.594;9.938;2022-08-19T05:59:31;153512.19;;;20.59
15453;BMP280;7827;53.594;9.938;2022-08-19T06:02:02;153510.97;;;20.59
15453;BMP280;7827;53.594;9.938;2022-08-19T06:04:33;153498.34;;;20.54
15453;BMP280;7827;53.594;9.938;2022-08-19T06:07:02;153505.94;;;20.57
15453;BMP280;7827;53.594;9.938;2022-08-19T06:09:39;153502.13;;;20.55
15453;BMP280;7827;53.594;9.938;2022-08-19T06:12:25;153509.72;;;20.58
15453;BMP280;7827;53.594;9.938;2022-08-19T06:14:56;153493.28;;;20.52
15453;BMP280;7827;53.594;9.938;2022-08-19T06:17:28;153490.78;;;20.51
15453;BMP280;7827;53.594;9.938;2022-08-19T06:19:59;153494.56;;;20.52
15453;BMP280;7827;53.594;9.938;2022-08-19T06:22:28;153504.63;;;20.56
15453;BMP280;7827;53.594;9.938;2022-08-19T06:24:56;153521.06;;;20.63
15453;BMP280;7827;53.594;9.938;2022-08-19T06:27:24;153536.25;;;20.69
15453;BMP280;7827;53.594;9.938;2022-08-19T06:29:52;153547.59;;;20.73
15453;BMP280;7827;53.594;9.938;2022-08-19T06:32:21;153551.38;;;20.75
15453;BMP280;7827;53.594;9.938;2022-08-19T06:34:49;153537.50;;;20.69
15453;BMP280;7827;53.594;9.938;2022-08-19T06:37:19;153547.59;;;20.73
15453;BMP280;7827;53.594;9.938;2022-08-19T06:39:49;153555.16;;;20.76
15453;BMP280;7827;53.594;9.938;2022-08-19T06:42:18;153548.84;;;20.74
15453;BMP280;7827;53.594;9.938;2022-08-19T06:44:50;153523.59;;;20.64
15453;BMP280;7827;53.594;9.938;2022-08-19T06:47:21;153529.88;;;20.66
15453;BMP280;7827;53.594;9.938;2022-08-19T06:49:55;153535.00;;;20.68
15453;BMP280;7827;53.594;9.938;2022-08-19T06:52:34;153538.78;;;20.70
15453;BMP280;7827;53.594;9.938;2022-08-19T06:55:05;153542.56;;;20.71
15453;BMP280;7827;53.594;9.938;2022-08-19T06:57:34;153557.72;;;20.77
15453;BMP280;7827;53.594;9.938;2022-08-19T07:00:05;153551.38;;;20.75
15453;BMP280;7827;53.594;9.938;2022-08-19T07:02:40;153548.84;;;20.74
15453;BMP280;7827;53.594;9.938;2022-08-19T07:05:14;153541.28;;;20.71
15453;BMP280;7827;53.594;9.938;2022-08-19T07:07:44;153535.00;;;20.68
15453;BMP280;7827;53.594;9.938;2022-08-19T07:10:13;153550.16;;;20.74
15453;BMP280;7827;53.594;9.938;2022-08-19T07:12:43;153562.75;;;20.79
15453;BMP280;7827;53.594;9.938;2022-08-19T07:15:12;153560.19;;;20.78
15453;BMP280;7827;53.594;9.938;2022-08-19T07:17:42;153555.16;;;20.76
15453;BMP280;7827;53.594;9.938;2022-08-19T07:20:11;153545.06;;;20.72
15453;BMP280;7827;53.594;9.938;2022-08-19T07:22:40;153535.00;;;20.68
15453;BMP280;7827;53.594;9.938;2022-08-19T07:25:10;153517.28;;;20.61
15453;BMP280;7827;53.594;9.938;2022-08-19T07:27:40;153503.38;;;20.56
15453;BMP280;7827;53.594;9.938;2022-08-19T07:30:12;153471.88;;;20.44
15453;BMP280;7827;53.594;9.938;2022-08-19T07:32:41;153456.72;;;20.38
15453;BMP280;7827;53.594;9.938;2022-08-19T07:35:10;153459.22;;;20.39
15453;BMP280;7827;53.594;9.938;2022-08-19T07:37:38;153445.38;;;20.33
15453;BMP280;7827;53.594;9.938;2022-08-19T07:40:12;153460.53;;;20.39
15453;BMP280;7827;53.594;9.938;2022-08-19T07:42:41;153466.78;;;20.42
15453;BMP280;7827;53.594;9.938;2022-08-19T07:45:11;153476.91;;;20.46
15453;BMP280;7827;53.594;9.938;2022-08-19T07:47:39;153481.94;;;20.48
15453;BMP280;7827;53.594;9.938;2022-08-19T07:50:15;153481.94;;;20.48
15453;BMP280;7827;53.594;9.938;2022-08-19T07:52:48;153461.75;;;20.40
15453;BMP280;7827;53.594;9.938;2022-08-19T07:55:22;153466.78;;;20.42
15453;BMP280;7827;53.594;9.938;2022-08-19T07:58:10;153459.22;;;20.39
15453;BMP280;7827;53.594;9.938;2022-08-19T08:00:40;153464.31;;;20.41
15453;BMP280;7827;53.594;9.938;2022-08-19T08:03:10;153475.66;;;20.45
15453;BMP280;7827;53.594;9.938;2022-08-19T08:05:39;153500.84;;;20.55
15453;BMP280;7827;53.594;9.938;2022-08-19T08:08:39;153490.78;;;20.51
15453;BMP280;7827;53.594;9.938;2022-08-19T08:11:27;153502.13;;;20.55
15453;BMP280;7827;53.594;9.938;2022-08-19T08:13:55;153497.06;;;20.53
15453;BMP280;7827;53.594;9.938;2022-08-19T08:16:34;153476.91;;;20.46
15453;BMP280;7827;53.594;9.938;2022-08-19T08:19:14;153475.66;;;20.45
15453;BMP280;7827;53.594;9.938;2022-08-19T08:21:53;153473.13;;;20.44
15453;BMP280;7827;53.594;9.938;2022-08-19T08:24:22;153449.16;;;20.35
15453;BMP280;7827;53.594;9.938;2022-08-19T08:26:58;153449.16;;;20.35
15453;BMP280;7827;53.594;9.938;2022-08-19T08:29:30;153474.38;;;20.45
15453;BMP280;7827;53.594;9.938;2022-08-19T08:32:02;153481.94;;;20.48
15453;BMP280;7827;53.594;9.938;2022-08-19T08:34:41;153483.22;;;20.48
15453;BMP280;7827;53.594;9.938;2022-08-19T08:37:09;153499.59;;;20.54
15453;BMP280;7827;53.594;9.938;2022-08-19T08:39:38;153510.97;;;20.59
15453;BMP280;7827;53.594;9.938;2022-08-19T08:42:17;153504.63;;;20.56
15453;BMP280;7827;53.594;9.938;2022-08-19T08:44:55;153497.06;;;20.53
15453;BMP280;7827;53.594;9.938;2022-08-19T08:47:36;153512.19;;;20.59
15453;BMP280;7827;53.594;9.938;2022-08-19T08:50:13;153522.31;;;20.63
15453;BMP280;7827;53.594;9.938;2022-08-19T08:52:51;153510.97;;;20.59
15453;BMP280;7827;53.594;9.938;2022-08-19T08:55:25;153519.78;;;20.62
15453;BMP280;7827;53.594;9.938;2022-08-19T08:58:10;153547.59;;;20.73
15453;BMP280;7827;53.594;9.938;2022-08-19T09:00:46;153557.72;;;20.77
15453;BMP280;7827;53.594;9.938;2022-08-19T09:03:19;153564.00;;;20.80
15453;BMP280;7827;53.594;9.938;2022-08-19T09:05:59;153566.53;;;20.81
15453;BMP280;7827;53.594;9.938;2022-08-19T09:08:47;153557.72;;;20.77
15453;BMP280;7827;53.594;9.938;2022-08-19T09:11:48;153557.72;;;20.77
15453;BMP280;7827;53.594;9.938;2022-08-19T09:14:35;153585.44;;;20.88
15453;BMP280;7827;53.594;9.938;2022-08-19T09:17:21;153608.16;;;20.97
15453;BMP280;7827;53.594;9.938;2022-08-19T09:19:59;153608.16;;;20.97
15453;BMP280;7827;53.594;9.938;2022-08-19T09:22:31;153599.34;;;20.94
15453;BMP280;7827;53.594;9.938;2022-08-19T09:25:00;153585.44;;;20.88
15453;BMP280;7827;53.594;9.938;2022-08-19T09:27:29;153604.38;;;20.96
15453;BMP280;7827;53.594;9.938;2022-08-19T09:30:15;153623.31;;;21.03
15453;BMP280;7827;53.594;9.938;2022-08-19T09:32:44;153615.72;;;21.00
15453;BMP280;7827;53.594;9.938;2022-08-19T09:35:21;153609.41;;;20.98
15453;BMP280;7827;53.594;9.938;2022-08-19T09:37:51;153606.91;;;20.97
15453;BMP280;7827;53.594;9.938;2022-08-19T09:40:27;153589.25;;;20.90
15453;BMP280;7827;53.594;9.938;2022-08-19T09:42:58;153579.13;;;20.86
15453;BMP280;7827;53.594;9.938;2022-08-19T09:45:40;153552.63;;;20.75
15453;BMP280;7827;53.594;9.938;2022-08-19T09:48:08;153557.72;;;20.77
15453;BMP280;7827;53.594;9.938;2022-08-19T09:50:37;153540.03;;;20.70
15453;BMP280;7827;53.594;9.938;2022-08-19T09:53:18;153555.16;;;20.76
15453;BMP280;7827;53.594;9.938;2022-08-19T09:55:51;153575.34;;;20.84
15453;BMP280;7827;53.594;9.938;2022-08-19T09:58:20;153598.06;;;20.93
15453;BMP280;7827;53.594;9.938;2022-08-19T10:00:54;153615.72;;;21.00
15453;BMP280;7827;53.594;9.938;2022-08-19T10:03:23;153625.84;;;21.04
15453;BMP280;7827;53.594;9.938;2022-08-19T10:05:58;153638.44;;;21.09
15453;BMP280;7827;53.594;9.938;2022-08-19T10:08:31;153656.13;;;21.16
15453;BMP280;7827;53.594;9.938;2022-08-19T10:11:01;153630.88;;;21.06
15453;BMP280;7827;53.594;9.938;2022-08-19T10:13:50;153622.06;;;21.02
15453;BMP280;7827;53.594;9.938;2022-08-19T10:16:23;153624.59;;;21.03
15453;BMP280;7827;53.594;9.938;2022-08-19T10:18:57;153615.72;;;21.00
15453;BMP280;7827;53.594;9.938;2022-08-19T10:21:32;153618.28;;;21.01
15453;BMP280;7827;53.594;9.938;2022-08-19T10:24:05;153611.94;;;20.99
15453;BMP280;7827;53.594;9.938;2022-08-19T10:26:38;153608.16;;;20.97
15453;BMP280;7827;53.594;9.938;2022-08-19T10:29:08;153571.56;;;20.83
15453;BMP280;7827;53.594;9.938;2022-08-19T10:31:39;153579.13;;;20.86
15453;BMP280;7827;53.594;9.938;2022-08-19T10:34:29;153593.03;;;20.91
15453;BMP280;7827;53.594;9.938;2022-08-19T10:36:59;153588.00;;;20.89
15453;BMP280;7827;53.594;9.938;2022-08-19T10:39:29;153595.56;;;20.92
15453;BMP280;7827;53.594;9.938;2022-08-19T10:42:09;153582.91;;;20.87
15453;BMP280;7827;53.594;9.938;2022-08-19T10:44:39;153570.31;;;20.82
15453;BMP280;7827;53.594;9.938;2022-08-19T10:47:10;153574.09;;;20.84
15453;BMP280;7827;53.594;9.938;2022-08-19T10:49:52;153569.06;;;20.82
15453;BMP280;7827;53.594;9.938;2022-08-19T10:52:39;153579.13;;;20.86
15453;BMP280;7827;53.594;9.938;2022-08-19T10:55:20;153581.66;;;20.87
15453;BMP280;7827;53.594;9.938;2022-08-19T10:58:11;153652.34;;;21.14
15453;BMP280;7827;53.594;9.938;2022-08-19T11:00:40;153704.09;;;21.35
15453;BMP280;7827;53.594;9.938;2022-08-19T11:03:11;153767.28;;;21.59
15453;BMP280;7827;53.594;9.938;2022-08-19T11:05:39;153825.31;;;21.82
15453;BMP280;7827;53.594;9.938;2022-08-19T11:08:08;153861.94;;;21.97
15453;BMP280;7827;53.594;9.938;2022-08-19T11:10:52;153893.53;;;22.09
15453;BMP280;7827;53.594;9.938;2022-08-19T11:13:22;153928.94;;;22.23
15453;BMP280;7827;53.594;9.938;2022-08-19T11:16:00;153959.22;;;22.35
15453;BMP280;7827;53.594;9.938;2022-08-19T11:18:36;154004.69;;;22.52
15453;BMP280;7827;53.594;9.938;2022-08-19T11:21:11;154022.41;;;22.59
15453;BMP280;7827;53.594;9.938;2022-08-19T11:23:40;154021.16;;;22.59
15453;BMP280;7827;53.594;9.938;2022-08-19T11:26:08;154047.69;;;22.69
15453;BMP280;7827;53.594;9.938;2022-08-19T11:28:37;154047.69;;;22.69
15453;BMP280;7827;53.594;9.938;2022-08-19T11:31:10;154069.13;;;22.78
15453;BMP280;7827;53.594;9.938;2022-08-19T11:33:41;154065.31;;;22.76
15453;BMP280;7827;53.594;9.938;2022-08-19T11:36:14;154047.69;;;22.69
15453;BMP280;7827;53.594;9.938;2022-08-19T11:38:44;154055.25;;;22.72
15453;BMP280;7827;53.594;9.938;2022-08-19T11:41:17;154083.03;;;22.83
15453;BMP280;7827;53.594;9.938;2022-08-19T11:43:46;154094.38;;;22.88
15453;BMP280;7827;53.594;9.938;2022-08-19T11:46:16;154107.06;;;22.93
15453;BMP280;7827;53.594;9.938;2022-08-19T11:48:46;154069.13;;;22.78
15453;BMP280;7827;53.594;9.938;2022-08-19T11:51:19;154065.31;;;22.76
15453;BMP280;7827;53.594;9.938;2022-08-19T11:53:49;154062.84;;;22.75
15453;BMP280;7827;53.594;9.938;2022-08-19T11:56:19;154075.44;;;22.80
15453;BMP280;7827;53.594;9.938;2022-08-19T11:58:48;154109.56;;;22.94
15453;BMP280;7827;53.594;9.938;2022-08-19T12:01:19;154115.94;;;22.96
15453;BMP280;7827;53.594;9.938;2022-08-19T12:03:51;154091.91;;;22.87
15453;BMP280;7827;53.594;9.938;2022-08-19T12:06:23;154055.25;;;22.72
15453;BMP280;7827;53.594;9.938;2022-08-19T12:08:56;154007.25;;;22.53
15453;BMP280;7827;53.594;9.938;2022-08-19T12:11:25;154000.91;;;22.51
15453;BMP280;7827;53.594;9.938;2022-08-19T12:13:55;154031.22;;;22.63
15453;BMP280;7827;53.594;9.938;2022-08-19T12:16:27;154051.47;;;22.71
15453;BMP280;7827;53.594;9.938;2022-08-19T12:18:57;154080.53;;;22.82
15453;BMP280;7827;53.594;9.938;2022-08-19T12:21:33;154124.75;;;23.00
15453;BMP280;7827;53.594;9.938;2022-08-19T12:24:06;154169.00;;;23.17
15453;BMP280;7827;53.594;9.938;2022-08-19T12:26:35;154223.38;;;23.38
15453;BMP280;7827;53.594;9.938;2022-08-19T12:29:20;154257.47;;;23.51
15453;BMP280;7827;53.594;9.938;2022-08-19T12:31:50;154300.50;;;23.68
15453;BMP280;7827;53.594;9.938;2022-08-19T12:34:20;154330.81;;;23.80
15453;BMP280;7827;53.594;9.938;2022-08-19T12:36:48;154329.56;;;23.80
15453;BMP280;7827;53.594;9.938;2022-08-19T12:39:17;154333.38;;;23.81
15453;BMP280;7827;53.594;9.938;2022-08-19T12:41:45;154339.69;;;23.84
15453;BMP280;7827;53.594;9.938;2022-08-19T12:44:21;154367.50;;;23.95
15453;BMP280;7827;53.594;9.938;2022-08-19T12:46:58;154401.63;;;24.08
15453;BMP280;7827;53.594;9.938;2022-08-19T12:49:30;154414.28;;;24.13
15453;BMP280;7827;53.594;9.938;2022-08-19T12:52:21;154431.97;;;24.20
15453;BMP280;7827;53.594;9.938;2022-08-19T12:54:51;154431.97;;;24.20
15453;BMP280;7827;53.594;9.938;2022-08-19T12:57:23;154406.72;;;24.10
15453;BMP280;7827;53.594;9.938;2022-08-19T13:00:01;154382.66;;;24.00
15453;BMP280;7827;53.594;9.938;2022-08-19T13:02:32;154335.91;;;23.82
15453;BMP280;7827;53.594;9.938;2022-08-19T13:05:09;154262.50;;;23.53
15453;BMP280;7827;53.594;9.938;2022-08-19T13:07:40;154251.16;;;23.49
15453;BMP280;7827;53.594;9.938;2022-08-19T13:10:14;154246.09;;;23.47
15453;BMP280;7827;53.594;9.938;2022-08-19T13:12:44;154225.84;;;23.39
15453;BMP280;7827;53.594;9.938;2022-08-19T13:15:14;154219.56;;;23.37
15453;BMP280;7827;53.594;9.938;2022-08-19T13:17:52;154195.53;;;23.27
15453;BMP280;7827;53.594;9.938;2022-08-19T13:20:23;154220.81;;;23.37
15453;BMP280;7827;53.594;9.938;2022-08-19T13:22:52;154256.19;;;23.51
15453;BMP280;7827;53.594;9.938;2022-08-19T13:25:20;154273.91;;;23.58
15453;BMP280;7827;53.594;9.938;2022-08-19T13:27:50;154308.06;;;23.71
15453;BMP280;7827;53.594;9.938;2022-08-19T13:30:20;154318.19;;;23.75
15453;BMP280;7827;53.594;9.938;2022-08-19T13:33:06;154315.66;;;23.74
15453;BMP280;7827;53.594;9.938;2022-08-19T13:35:48;154315.66;;;23.74
15453;BMP280;7827;53.594;9.938;2022-08-19T13:38:20;154295.44;;;23.66
15453;BMP280;7827;53.594;9.938;2022-08-19T13:40:51;154290.41;;;23.64
15453;BMP280;7827;53.594;9.938;2022-08-19T13:43:22;154295.44;;;23.66
15453;BMP280;7827;53.594;9.938;2022-08-19T13:45:53;154305.56;;;23.70
15453;BMP280;7827;53.594;9.938;2022-08-19T13:48:25;154327.03;;;23.79
15453;BMP280;7827;53.594;9.938;2022-08-19T13:50:55;154332.13;;;23.81
15453;BMP280;7827;53.594;9.938;2022-08-19T13:53:24;154339.69;;;23.84
15453;BMP280;7827;53.594;9.938;2022-08-19T13:55:52;154335.91;;;23.82
15453;BMP280;7827;53.594;9.938;2022-08-19T13:58:21;154338.41;;;23.83
15453;BMP280;7827;53.594;9.938;2022-08-19T14:00:50;154325.78;;;23.78
15453;BMP280;7827;53.594;9.938;2022-08-19T14:03:19;154321.97;;;23.77
15453;BMP280;7827;53.594;9.938;2022-08-19T14:05:47;154305.56;;;23.70
15453;BMP280;7827;53.594;9.938;2022-08-19T14:08:17;154300.50;;;23.68
15453;BMP280;7827;53.594;9.938;2022-08-19T14:10:46;154294.19;;;23.66
15453;BMP280;7827;53.594;9.938;2022-08-19T14:13:19;154306.81;;;23.71
15453;BMP280;7827;53.594;9.938;2022-08-19T14:15:48;154321.97;;;23.77
15453;BMP280;7827;53.594;9.938;2022-08-19T14:18:18;154310.63;;;23.72
15453;BMP280;7827;53.594;9.938;2022-08-19T14:20:46;154309.38;;;23.72
15453;BMP280;7827;53.594;9.938;2022-08-19T14:23:16;154295.44;;;23.66
15453;BMP280;7827;53.594;9.938;2022-08-19T14:25:45;154300.50;;;23.68
15453;BMP280;7827;53.594;9.938;2022-08-19T14:28:13;154271.41;;;23.57
15453;BMP280;7827;53.594;9.938;2022-08-19T14:30:41;154284.03;;;23.62
15453;BMP280;7827;53.594;9.938;2022-08-19T14:33:11;154327.03;;;23.79
15453;BMP280;7827;53.594;9.938;2022-08-19T14:35:40;154381.41;;;24.00
15453;BMP280;7827;53.594;9.938;2022-08-19T14:38:18;154407.97;;;24.10
15453;BMP280;7827;53.594;9.938;2022-08-19T14:41:11;154457.25;;;24.30